sensor_id;sensor_type;location;lat;lon;timestamp;P1;durP1;ratioP1;P2;durP2;ratioP2
31686;SDS011;18285;51.330;4.946;2024-03-08T00:17:09;9.98;;;8.10;;
31686;SDS011;18285;51.330;4.946;2024-03-08T00:41:20;8.75;;;7.50;;
31686;SDS011;18285;51.330;4.946;2024-03-08T01:05:31;9.05;;;7.15;;
31686;SDS011;18285;51.330;4.946;2024-03-08T01:29:41;9.82;;;7.63;;
31686;SDS011;18285;51.330;4.946;2024-03-08T01:53:52;10.23;;;7.82;;
31686;SDS011;18285;51.330;4.946;2024-03-08T02:18:03;8.27;;;6.28;;
31686;SDS011;18285;51.330;4.946;2024-03-08T02:42:14;7.03;;;6.30;;
31686;SDS011;18285;51.330;4.946;2024-03-08T03:06:25;7.85;;;5.93;;
31686;SDS011;18285;51.330;4.946;2024-03-08T03:30:36;7.68;;;6.35;;
31686;SDS011;18285;51.330;4.946;2024-03-08T03:54:47;7.37;;;5.63;;
31686;SDS011;18285;51.330;4.946;2024-03-08T04:18:58;7.57;;;6.33;;
31686;SDS011;18285;51.330;4.946;2024-03-08T04:43:09;7.63;;;6.13;;
31686;SDS011;18285;51.330;4.946;2024-03-08T05:07:20;5.77;;;5.23;;
31686;SDS011;18285;51.330;4.946;2024-03-08T05:31:35;8.32;;;6.30;;
31686;SDS011;18285;51.330;4.946;2024-03-08T05:55:57;9.93;;;7.38;;
31686;SDS011;18285;51.330;4.946;2024-03-08T06:20:08;13.63;;;6.35;;
31686;SDS011;18285;51.330;4.946;2024-03-08T07:08:37;9.60;;;7.82;;
31686;SDS011;18285;51.330;4.946;2024-03-08T07:32:48;9.80;;;7.28;;
31686;SDS011;18285;51.330;4.946;2024-03-08T07:56:58;7.90;;;6.45;;
31686;SDS011;18285;51.330;4.946;2024-03-08T08:21:09;8.40;;;6.35;;
31686;SDS011;18285;51.330;4.946;2024-03-08T08:45:20;7.23;;;6.33;;
31686;SDS011;18285;51.330;4.946;2024-03-08T09:09:35;7.88;;;6.28;;
31686;SDS011;18285;51.330;4.946;2024-03-08T09:33:46;7.38;;;5.15;;
31686;SDS011;18285;51.330;4.946;2024-03-08T09:57:56;5.97;;;5.38;;
31686;SDS011;18285;51.330;4.946;2024-03-08T10:22:41;5.80;;;4.93;;
31686;SDS011;18285;51.330;4.946;2024-03-08T10:47:29;4.55;;;4.15;;
31686;SDS011;18285;51.330;4.946;2024-03-08T11:11:36;5.07;;;4.47;;
31686;SDS011;18285;51.330;4.946;2024-03-08T11:35:47;5.80;;;5.20;;
31686;SDS011;18285;51.330;4.946;2024-03-08T11:59:58;6.35;;;4.50;;
31686;SDS011;18285;51.330;4.946;2024-03-08T12:24:16;4.68;;;4.28;;
31686;SDS011;18285;51.330;4.946;2024-03-08T12:48:33;5.03;;;4.53;;
31686;SDS011;18285;51.330;4.946;2024-03-08T13:12:50;10.97;;;7.20;;
31686;SDS011;18285;51.330;4.946;2024-03-08T13:37:03;12.85;;;8.20;;
31686;SDS011;18285;51.330;4.946;2024-03-08T14:01:15;7.93;;;5.82;;
31686;SDS011;18285;51.330;4.946;2024-03-08T14:25:27;6.72;;;5.20;;
31686;SDS011;18285;51.330;4.946;2024-03-08T14:49:39;6.28;;;5.05;;
31686;SDS011;18285;51.330;4.946;2024-03-08T15:13:50;15.20;;;7.45;;
31686;SDS011;18285;51.330;4.946;2024-03-08T15:38:03;7.00;;;5.00;;
31686;SDS011;18285;51.330;4.946;2024-03-08T16:02:14;7.53;;;4.67;;
31686;SDS011;18285;51.330;4.946;2024-03-08T16:26:25;25.88;;;12.40;;
31686;SDS011;18285;51.330;4.946;2024-03-08T16:50:37;9.75;;;6.85;;
31686;SDS011;18285;51.330;4.946;2024-03-08T17:39:07;11.85;;;6.35;;
31686;SDS011;18285;51.330;4.946;2024-03-08T18:03:27;16.88;;;12.18;;
31686;SDS011;18285;51.330;4.946;2024-03-08T18:27:38;17.10;;;12.05;;
31686;SDS011;18285;51.330;4.946;2024-03-08T18:51:49;15.43;;;11.80;;
31686;SDS011;18285;51.330;4.946;2024-03-08T19:16:04;13.38;;;11.32;;
31686;SDS011;18285;51.330;4.946;2024-03-08T19:40:16;18.83;;;14.00;;
31686;SDS011;18285;51.330;4.946;2024-03-08T20:28:47;29.83;;;16.17;;
31686;SDS011;18285;51.330;4.946;2024-03-08T20:53:01;20.25;;;12.75;;
31686;SDS011;18285;51.330;4.946;2024-03-08T21:17:17;18.73;;;11.60;;
31686;SDS011;18285;51.330;4.946;2024-03-08T21:41:28;17.42;;;11.73;;
31686;SDS011;18285;51.330;4.946;2024-03-08T22:05:39;18.67;;;10.77;;
31686;SDS011;18285;51.330;4.946;2024-03-08T22:29:50;14.10;;;9.75;;
31686;SDS011;18285;51.330;4.946;2024-03-08T22:54:01;12.93;;;8.98;;
31686;SDS011;18285;51.330;4.946;2024-03-08T23:18:11;13.05;;;9.05;;
31686;SDS011;18285;51.330;4.946;2024-03-08T23:42:22;10.90;;;8.65;;
